Time;durP1;ratioP1;P1;durP2;ratioP2;P2;SDS_P1;SDS_P2;PMS_P1;PMS_P2;Temp;Humidity;BMP_temperature;BMP_pressure;BME280_temperature;BME280_humidity;BME280_pressure;Samples;Min_cycle;Max_cycle;Signal;HPM_P1;HPM_P2
2022/07/24 00:00:17;;;;;;;12.02;6.80;;;;;;;24.65;60.96;100355.84;18296094;32;20438;-56
2022/07/24 00:10:20;;;;;;;11.32;6.65;;;;;;;24.70;60.49;100400.94;18296558;32;20089;-56
2022/07/24 00:20:25;;;;;;;12.20;6.75;;;;;;;25.02;59.35;100449.69;18295114;32;20109;-56
2022/07/24 00:30:28;;;;;;;13.38;7.07;;;;;;;24.03;63.45;100440.41;18294985;32;20105;-56
2022/07/24 00:40:33;;;;;;;15.82;8.63;;;;;;;23.81;64.11;100435.50;18294311;32;20130;-56
2022/07/24 00:50:37;;;;;;;15.43;8.02;;;;;;;23.75;66.57;100443.81;18294114;32;20101;-56
2022/07/24 01:00:41;;;;;;;13.35;7.53;;;;;;;24.68;63.10;100441.09;18292703;32;20120;-56
2022/07/24 01:10:45;;;;;;;13.90;7.80;;;;;;;25.20;61.07;100452.16;18293405;32;20094;-56
2022/07/24 01:20:50;;;;;;;11.00;6.30;;;;;;;25.66;59.54;100452.88;18292825;32;20416;-55
2022/07/24 01:30:54;;;;;;;10.68;5.57;;;;;;;25.47;59.42;100454.91;18292624;32;20434;-55
2022/07/24 01:40:58;;;;;;;9.82;4.95;;;;;;;26.02;54.16;100438.03;18291883;32;20106;-54
2022/07/24 01:51:01;;;;;;;8.70;4.37;;;;;;;26.23;51.38;100443.81;18292490;32;20082;-56
2022/07/24 02:01:06;;;;;;;9.50;4.32;;;;;;;27.28;47.92;100422.25;18291094;32;20102;-55
2022/07/24 02:11:10;;;;;;;8.80;4.90;;;;;;;27.31;47.24;100428.34;18298004;32;20901;-56
2022/07/24 02:21:14;;;;;;;10.40;5.30;;;;;;;26.74;50.42;100413.50;18299757;32;20116;-56
2022/07/24 02:31:17;;;;;;;10.48;5.00;;;;;;;27.47;49.08;100423.59;18299611;32;20597;-56
2022/07/24 02:41:22;;;;;;;11.20;5.37;;;;;;;27.08;50.44;100404.09;18298762;32;20157;-56
2022/07/24 02:51:25;;;;;;;9.20;4.55;;;;;;;27.39;50.78;100412.56;18299063;32;20116;-56
2022/07/24 03:01:30;;;;;;;9.55;4.85;;;;;;;27.23;51.89;100421.75;18298334;32;20097;-56
2022/07/24 03:11:33;;;;;;;11.43;5.05;;;;;;;26.68;52.88;100424.69;18297641;32;20098;-56
2022/07/24 03:21:38;;;;;;;9.88;4.95;;;;;;;26.47;53.24;100415.47;18297883;32;20090;-56
2022/07/24 03:31:50;;;;;;;9.18;4.82;;;;;;;26.56;53.44;100421.03;18297475;32;20194;-55
2022/07/24 03:41:55;;;;;;;10.45;5.20;;;;;;;26.08;55.62;100424.25;18296627;32;20086;-56
2022/07/24 03:51:58;;;;;;;10.50;5.32;;;;;;;26.49;54.34;100435.78;18296468;32;20112;-56
2022/07/24 04:02:03;;;;;;;11.27;5.65;;;;;;;26.51;54.63;100433.03;18295732;32;20110;-56
2022/07/24 04:12:07;;;;;;;9.80;5.07;;;;;;;26.32;55.58;100434.28;18295862;32;20110;-56
2022/07/24 04:22:11;;;;;;;10.65;5.22;;;;;;;26.11;56.13;100436.56;18295078;32;20116;-56
2022/07/24 04:32:15;;;;;;;9.60;4.85;;;;;;;26.68;54.00;100448.78;18294023;32;20409;-56
2022/07/24 04:42:20;;;;;;;10.15;4.78;;;;;;;27.04;53.51;100450.81;18294755;32;20120;-56
2022/07/24 04:52:23;;;;;;;10.27;4.90;;;;;;;27.24;53.38;100469.00;18295289;32;20654;-56
2022/07/24 05:02:28;;;;;;;10.55;5.37;;;;;;;27.50;51.74;100489.53;18294582;32;20124;-56
2022/07/24 05:12:31;;;;;;;9.23;4.80;;;;;;;27.62;52.22;100494.00;18293379;32;20129;-56
2022/07/24 05:22:35;;;;;;;10.88;5.25;;;;;;;28.03;49.37;100504.47;18293953;32;20725;-56
2022/07/24 05:32:39;;;;;;;9.95;5.32;;;;;;;28.41;47.58;100507.97;18292582;32;20125;-55
2022/07/24 05:42:44;;;;;;;10.90;5.10;;;;;;;28.65;47.34;100518.66;18291539;32;20401;-56
2022/07/24 05:52:47;;;;;;;9.50;5.30;;;;;;;28.90;46.16;100533.75;18291428;32;20097;-56
2022/07/24 06:02:52;;;;;;;9.70;5.32;;;;;;;29.19;45.49;100533.28;18290606;32;20085;-56
2022/07/24 06:12:55;;;;;;;8.95;4.97;;;;;;;29.17;43.58;100537.94;18291627;32;20089;-56
2022/07/24 06:22:59;;;;;;;10.55;5.12;;;;;;;29.55;42.27;100543.09;18290072;32;20105;-56
2022/07/24 06:33:03;;;;;;;10.27;4.85;;;;;;;29.76;42.21;100544.03;18289536;32;20464;-56
2022/07/24 06:43:08;;;;;;;11.90;5.35;;;;;;;30.49;39.90;100547.12;18290118;32;20098;-55
2022/07/24 06:53:11;;;;;;;9.55;5.35;;;;;;;30.77;37.39;100551.03;18291648;32;20145;-54
2022/07/24 07:03:17;;;;;;;9.63;5.15;;;;;;;31.45;35.48;100548.84;18298124;32;20086;-57
2022/07/24 07:13:20;;;;;;;10.57;6.12;;;;;;;31.62;34.38;100548.19;18298085;32;20107;-54
2022/07/24 07:23:26;;;;;;;9.38;4.97;;;;;;;31.96;35.14;100552.44;18298466;32;20097;-58
2022/07/24 07:33:33;;;;;;;9.88;5.53;;;;;;;32.21;32.74;100536.69;18297283;32;20090;-55
2022/07/24 07:43:38;;;;;;;10.18;5.15;;;;;;;32.56;32.60;100545.22;18296355;32;20779;-54
2022/07/24 07:53:41;;;;;;;10.10;4.93;;;;;;;33.01;31.38;100558.13;18297557;32;20097;-55
2022/07/24 08:03:45;;;;;;;8.73;4.75;;;;;;;32.89;31.92;100564.62;18295590;32;20106;-54
2022/07/24 08:13:49;;;;;;;10.10;5.20;;;;;;;32.74;30.85;100558.84;18296068;32;20122;-55
2022/07/24 08:23:53;;;;;;;9.27;4.28;;;;;;;33.43;30.28;100566.78;18295399;32;20567;-56
2022/07/24 08:33:56;;;;;;;8.90;4.75;;;;;;;33.26;29.23;100577.38;18347677;32;20123;-54
2022/07/24 08:44:02;;;;;;;7.35;3.95;;;;;;;33.11;28.53;100578.88;18294590;32;20124;-55
2022/07/24 08:54:06;;;;;;;9.80;4.72;;;;;;;33.08;27.87;100574.59;18295104;32;20101;-55
2022/07/24 09:04:38;;;;;;;8.25;4.10;;;;;;;32.63;29.87;100568.81;18346297;32;20098;-54
2022/07/24 09:14:43;;;;;;;8.25;4.20;;;;;;;33.22;28.10;100578.69;18292581;32;20396;-55
2022/07/24 09:24:48;;;;;;;8.90;5.07;;;;;;;33.28;27.07;100590.75;18293438;32;20097;-54
2022/07/24 09:34:53;;;;;;;8.38;4.47;;;;;;;33.10;29.18;100587.94;18292573;32;20133;-55
2022/07/24 09:45:00;;;;;;;9.18;4.53;;;;;;;33.86;28.58;100578.84;18291975;32;20381;-54
2022/07/24 09:55:03;;;;;;;7.85;3.85;;;;;;;34.07;26.61;100583.13;18291607;32;20129;-56
2022/07/24 10:05:09;;;;;;;6.32;3.40;;;;;;;34.33;26.00;100578.81;18290934;32;20121;-54
2022/07/24 10:15:13;;;;;;;7.60;3.83;;;;;;;34.79;22.95;100584.12;18290638;32;20105;-55
2022/07/24 10:25:20;;;;;;;8.45;4.12;;;;;;;34.72;23.73;100586.63;18343589;32;20116;-55
2022/07/24 10:35:26;;;;;;;9.00;4.40;;;;;;;34.86;24.67;100598.75;18299728;32;20104;-54
2022/07/24 10:45:30;;;;;;;6.75;3.40;;;;;;;34.82;25.07;100583.81;18299398;32;20452;-54
2022/07/24 10:55:35;;;;;;;6.40;3.80;;;;;;;35.16;22.78;100583.03;18298797;32;20102;-55
2022/07/24 11:05:41;;;;;;;7.55;3.40;;;;;;;35.50;22.78;100578.59;18298068;32;20128;-55
2022/07/24 11:16:18;;;;;;;6.20;3.47;;;;;;;35.64;21.20;100580.75;18298101;32;20089;-55
2022/07/24 11:26:40;;;;;;;5.68;2.53;;;;;;;36.16;21.03;100564.44;18297636;32;20120;-55
2022/07/24 11:36:47;;;;;;;6.12;2.80;;;;;;;36.14;18.27;100553.72;18296759;32;20098;-55
2022/07/24 11:46:52;;;;;;;5.80;2.72;;;;;;;36.67;18.15;100552.56;18296800;32;20111;-55
2022/07/24 11:56:56;;;;;;;7.35;3.20;;;;;;;36.89;17.66;100537.41;18297314;32;20112;-54
2022/07/24 12:07:06;;;;;;;5.75;2.58;;;;;;;36.82;18.48;100533.66;18348528;32;20141;-54
2022/07/24 12:17:10;;;;;;;5.43;2.70;;;;;;;37.26;15.54;100527.78;18296948;32;20446;-55
2022/07/24 12:27:32;;;;;;;4.75;2.30;;;;;;;37.54;15.12;100508.28;18348543;32;20350;-55
2022/07/24 12:37:38;;;;;;;5.62;2.65;;;;;;;37.81;13.95;100497.91;18294891;32;20351;-55
2022/07/24 12:48:09;;;;;;;6.90;3.00;;;;;;;37.79;15.27;100504.56;18347505;32;20090;-55
2022/07/24 12:58:12;;;;;;;5.35;2.50;;;;;;;38.18;14.89;100489.97;18293911;32;20109;-55
2022/07/24 13:08:16;;;;;;;5.10;2.62;;;;;;;38.20;15.56;100484.34;18293535;32;20093;-55
2022/07/24 13:18:23;;;;;;;5.35;2.47;;;;;;;38.97;14.72;100482.41;18293377;32;20086;-55
2022/07/24 13:28:28;;;;;;;4.35;2.45;;;;;;;38.37;14.61;100468.69;18292841;32;20097;-54
2022/07/24 13:38:31;;;;;;;4.93;2.60;;;;;;;38.25;14.98;100471.00;18292534;32;20146;-54
2022/07/24 13:48:38;;;;;;;3.97;1.92;;;;;;;38.27;14.57;100463.47;18291886;32;20090;-55
2022/07/24 13:58:43;;;;;;;3.80;2.10;;;;;;;38.02;14.92;100448.22;18292654;32;20104;-54
2022/07/24 14:08:48;;;;;;;5.40;2.17;;;;;;;37.87;12.95;100436.41;18363882;32;20101;-55
2022/07/24 14:18:51;;;;;;;4.18;1.85;;;;;;;36.99;13.82;100425.66;18311584;32;20094;-55
2022/07/24 14:28:55;;;;;;;3.42;1.80;;;;;;;37.02;14.21;100428.88;18312174;32;20132;-54
2022/07/24 14:38:59;;;;;;;3.97;1.98;;;;;;;36.96;14.09;100418.72;18311837;32;20156;-54
2022/07/24 14:49:03;;;;;;;2.65;1.52;;;;;;;36.63;14.48;100422.41;18311407;32;20101;-54
2022/07/24 14:59:07;;;;;;;3.17;1.70;;;;;;;36.48;13.20;100422.25;18309791;32;20154;-54
2022/07/24 15:09:11;;;;;;;3.85;1.65;;;;;;;36.56;14.01;100413.25;18309043;32;20094;-55
2022/07/24 15:19:15;;;;;;;2.80;1.60;;;;;;;36.20;14.57;100402.78;18299499;32;20111;-55
2022/07/24 15:29:20;;;;;;;3.62;1.70;;;;;;;36.21;14.54;100401.75;18297431;32;20089;-56
2022/07/24 15:39:23;;;;;;;3.58;1.70;;;;;;;35.89;15.37;100393.44;18297081;32;20179;-54
2022/07/24 15:49:28;;;;;;;4.07;1.80;;;;;;;35.69;15.68;100390.22;18296709;32;20120;-55
2022/07/24 15:59:31;;;;;;;3.65;1.85;;;;;;;35.21;16.01;100387.22;18348820;32;20145;-55
2022/07/24 16:09:35;;;;;;;3.65;1.75;;;;;;;35.23;16.34;100383.34;18295654;32;20173;-55
2022/07/24 16:19:39;;;;;;;2.87;1.50;;;;;;;35.17;16.55;100383.16;18295585;32;20120;-55
2022/07/24 16:29:44;;;;;;;2.78;1.58;;;;;;;34.77;17.04;100377.41;18295285;32;20098;-55
2022/07/24 16:39:47;;;;;;;3.53;1.90;;;;;;;34.78;17.01;100384.53;18294817;32;20106;-55
2022/07/24 16:49:51;;;;;;;3.97;1.87;;;;;;;34.39;17.27;100375.84;18294938;32;20150;-55
2022/07/24 16:59:55;;;;;;;2.37;1.52;;;;;;;34.33;17.00;100379.16;18347713;32;20589;-55
2022/07/24 17:09:59;;;;;;;4.03;1.80;;;;;;;33.88;17.65;100383.75;18294347;32;20101;-55
2022/07/24 17:20:03;;;;;;;3.08;1.67;;;;;;;33.84;17.94;100391.31;18293445;32;20443;-55
2022/07/24 17:30:09;;;;;;;3.90;1.70;;;;;;;33.75;18.20;100385.00;18293027;32;20125;-55
2022/07/24 17:40:13;;;;;;;2.97;1.60;;;;;;;33.38;18.78;100379.69;18292085;32;20094;-55
2022/07/24 17:50:20;;;;;;;3.58;1.80;;;;;;;33.06;18.78;100377.34;18291888;32;20100;-55
2022/07/24 18:00:23;;;;;;;4.28;1.75;;;;;;;32.71;19.01;100389.72;18291655;32;20090;-55
2022/07/24 18:10:28;;;;;;;2.92;1.48;;;;;;;32.63;19.43;100386.91;18291085;32;20097;-55
2022/07/24 18:20:31;;;;;;;2.92;1.58;;;;;;;32.50;19.73;100403.47;18290633;32;20102;-55
2022/07/24 18:30:36;;;;;;;3.90;1.75;;;;;;;32.22;20.31;100414.19;18290047;32;20102;-56
2022/07/24 18:40:40;;;;;;;3.90;1.73;;;;;;;31.85;20.60;100421.16;18341782;32;20098;-55
2022/07/24 18:50:45;;;;;;;3.62;2.05;;;;;;;31.55;20.98;100431.91;18293523;32;20482;-56
2022/07/24 19:00:48;;;;;;;4.03;2.00;;;;;;;31.52;21.19;100450.22;18298481;32;20429;-56
2022/07/24 19:10:52;;;;;;;5.78;2.20;;;;;;;31.21;21.56;100458.34;18299229;32;20102;-56
2022/07/24 19:20:56;;;;;;;3.08;1.60;;;;;;;31.00;22.15;100475.41;18297940;32;20155;-56
2022/07/24 19:31:00;;;;;;;3.62;1.90;;;;;;;30.70;22.90;100491.47;18350607;32;20105;-56
2022/07/24 19:41:04;;;;;;;5.95;1.80;;;;;;;30.37;23.27;100497.87;18350724;32;20244;-56
2022/07/24 19:51:09;;;;;;;5.37;2.28;;;;;;;29.75;25.37;100501.97;18296692;32;20093;-56
2022/07/24 20:01:32;;;;;;;5.20;2.37;;;;;;;28.99;27.29;100515.19;18289518;31;205145;-56
2022/07/24 20:11:37;;;;;;;5.97;2.50;;;;;;;28.25;28.54;100527.91;18296108;32;20161;-56
2022/07/24 20:21:40;;;;;;;6.55;2.53;;;;;;;27.60;30.25;100535.31;18295739;32;20097;-56
2022/07/24 20:31:48;;;;;;;8.20;3.78;;;;;;;26.87;32.11;100565.31;18295431;32;20637;-56
2022/07/24 20:41:51;;;;;;;6.18;2.25;;;;;;;25.95;35.41;100581.12;18295504;32;20714;-56
2022/07/24 20:51:56;;;;;;;6.30;2.40;;;;;;;26.18;34.56;100593.91;18294559;32;20108;-56
2022/07/24 21:01:59;;;;;;;4.68;2.42;;;;;;;26.13;34.88;100601.34;18294022;32;20378;-56
2022/07/24 21:12:05;;;;;;;5.43;2.35;;;;;;;25.88;35.08;100602.91;18344421;32;20116;-56
2022/07/24 21:22:08;;;;;;;6.20;2.65;;;;;;;25.55;36.05;100605.91;18294234;32;20089;-56
2022/07/24 21:32:13;;;;;;;5.72;2.47;;;;;;;25.26;36.89;100592.50;18293022;32;20743;-56
2022/07/24 21:42:17;;;;;;;7.93;2.80;;;;;;;24.92;37.97;100601.62;18293518;32;20097;-56
2022/07/24 21:52:21;;;;;;;5.93;2.60;;;;;;;24.62;38.90;100617.59;18291800;32;20106;-56
2022/07/24 22:02:24;;;;;;;5.37;2.60;;;;;;;24.30;39.34;100636.31;18291395;32;20093;-56
2022/07/24 22:12:29;;;;;;;5.03;2.37;;;;;;;24.16;40.40;100653.91;18290752;32;20714;-56
2022/07/24 22:22:32;;;;;;;5.12;2.35;;;;;;;23.94;40.24;100657.75;18292700;32;20438;-56
2022/07/24 22:32:37;;;;;;;6.20;2.45;;;;;;;23.84;40.36;100654.72;18299903;32;20513;-56
2022/07/24 22:42:40;;;;;;;6.43;2.80;;;;;;;23.83;40.35;100666.31;18299322;32;20101;-56
2022/07/24 22:52:45;;;;;;;6.75;2.80;;;;;;;23.32;42.44;100661.00;18298851;32;20739;-56
2022/07/24 23:02:49;;;;;;;5.85;2.72;;;;;;;23.50;42.09;100656.53;18351955;32;20101;-56
2022/07/24 23:12:54;;;;;;;5.80;2.65;;;;;;;23.16;43.31;100663.56;18298503;32;20105;-56
2022/07/24 23:22:57;;;;;;;6.37;3.00;;;;;;;23.12;43.56;100659.34;18298111;32;20428;-56
2022/07/24 23:33:02;;;;;;;9.68;3.37;;;;;;;23.16;43.49;100660.06;18297295;32;20369;-56
2022/07/24 23:43:05;;;;;;;5.47;3.00;;;;;;;22.80;44.93;100656.47;18297429;32;20102;-56
2022/07/24 23:53:09;;;;;;;5.95;2.75;;;;;;;22.71;45.42;100661.31;18296845;32;20098;-56
